createdAt,value
2023-01-03T00:01:55.352Z,97.42
2023-01-03T00:04:22.481Z,96.64
2023-01-03T00:06:51.841Z,96.82
2023-01-03T00:09:22.483Z,95.47
2023-01-03T00:12:09.572Z,96.68
2023-01-03T00:14:41.523Z,95.27
2023-01-03T00:17:10.365Z,95.77
2023-01-03T00:19:40.613Z,96.60
2023-01-03T00:22:09.245Z,97.40
2023-01-03T00:24:36.567Z,96.72
2023-01-03T00:27:03.959Z,98.19
2023-01-03T00:29:32.029Z,98.51
2023-01-03T00:31:59.100Z,99.43
2023-01-03T00:34:26.809Z,100.00
2023-01-03T00:36:53.820Z,100.00
2023-01-03T00:39:21.150Z,100.00
2023-01-03T00:41:48.322Z,100.00
2023-01-03T00:44:15.725Z,98.27
2023-01-03T00:46:42.905Z,99.36
2023-01-03T00:49:10.672Z,97.27
2023-01-03T00:51:39.627Z,96.08
2023-01-03T00:54:08.745Z,96.03
2023-01-03T00:56:40.555Z,96.03
2023-01-03T00:59:08.587Z,97.07
2023-01-03T01:01:46.699Z,96.18
2023-01-03T01:04:30.429Z,98.44
2023-01-03T01:07:00.668Z,96.54
2023-01-03T01:09:33.424Z,96.44
2023-01-03T01:12:00.361Z,96.37
2023-01-03T01:14:30.460Z,96.16
2023-01-03T01:17:02.565Z,96.71
2023-01-03T01:19:37.861Z,98.26
2023-01-03T01:22:05.629Z,98.72
2023-01-03T01:24:33.677Z,100.00
2023-01-03T01:27:01.070Z,97.38
2023-01-03T01:29:28.270Z,97.96
2023-01-03T01:31:55.822Z,98.76
2023-01-03T01:34:22.869Z,96.17
2023-01-03T01:36:50.045Z,96.56
2023-01-03T01:39:21.205Z,96.47
2023-01-03T01:42:08.482Z,96.35
2023-01-03T01:44:50.163Z,95.23
2023-01-03T01:47:44.178Z,95.25
2023-01-03T01:50:44.550Z,100.00
2023-01-03T01:53:16.730Z,96.20
2023-01-03T01:56:19.367Z,95.18
2023-01-03T01:58:49.013Z,94.83
2023-01-03T02:01:19.462Z,93.74
2023-01-03T02:03:55.852Z,93.69
2023-01-03T02:06:25.249Z,93.10
2023-01-03T02:09:12.587Z,93.17
2023-01-03T02:12:16.805Z,94.51
2023-01-03T02:15:05.931Z,92.17
2023-01-03T02:18:11.752Z,92.69
2023-01-03T02:20:59.522Z,91.53
2023-01-03T02:24:07.409Z,91.55
2023-01-03T02:26:52.032Z,91.96
2023-01-03T02:29:27.946Z,91.81
2023-01-03T02:35:26.394Z,91.34
2023-01-03T02:38:13.275Z,91.74
2023-01-03T02:40:50.286Z,91.27
2023-01-03T02:43:33.123Z,90.50
2023-01-03T02:46:05.996Z,89.76
2023-01-03T02:48:56.209Z,89.82
2023-01-03T02:51:45.339Z,89.47
2023-01-03T02:54:28.909Z,93.11
2023-01-03T02:57:06.473Z,93.03
2023-01-03T02:59:46.049Z,92.33
2023-01-03T03:02:15.439Z,92.33
2023-01-03T03:04:45.261Z,92.34
2023-01-03T03:07:20.711Z,91.08
2023-01-03T03:10:06.179Z,92.42
2023-01-03T03:12:53.936Z,92.70
2023-01-03T03:15:24.174Z,92.62
2023-01-03T03:17:58.180Z,92.48
2023-01-03T03:20:43.607Z,92.16
2023-01-03T03:23:34.561Z,91.53
2023-01-03T03:26:10.438Z,92.46
2023-01-03T03:28:39.858Z,90.59
2023-01-03T03:31:11.812Z,91.17
2023-01-03T03:34:04.651Z,91.09
2023-01-03T03:36:39.332Z,90.90
2023-01-03T03:39:29.025Z,91.94
2023-01-03T03:42:21.920Z,91.71
2023-01-03T03:45:02.635Z,90.66
2023-01-03T03:47:43.587Z,91.89
2023-01-03T03:50:27.773Z,91.40
2023-01-03T03:52:59.627Z,91.83
2023-01-03T03:55:35.597Z,91.13
2023-01-03T03:58:07.968Z,90.58
2023-01-03T04:00:38.678Z,89.70
2023-01-03T04:03:09.685Z,89.41
2023-01-03T04:05:44.267Z,89.97
2023-01-03T04:08:11.424Z,89.61
2023-01-03T04:10:38.626Z,91.00
2023-01-03T04:13:06.027Z,92.31
2023-01-03T04:15:32.962Z,93.15
2023-01-03T04:18:02.697Z,94.32
2023-01-03T04:20:30.397Z,97.19
2023-01-03T04:22:57.379Z,94.69
2023-01-03T04:25:24.940Z,98.13
2023-01-03T04:27:51.884Z,97.12
2023-01-03T04:30:18.985Z,96.22
2023-01-03T04:32:47.621Z,95.30
2023-01-03T04:35:14.653Z,96.26
2023-01-03T04:37:50.663Z,97.10
2023-01-03T04:40:18.181Z,95.13
2023-01-03T04:43:03.535Z,94.98
2023-01-03T04:45:30.561Z,95.29
2023-01-03T04:47:57.495Z,94.51
2023-01-03T04:50:24.452Z,95.51
2023-01-03T04:52:51.369Z,94.51
2023-01-03T04:55:18.426Z,95.25
2023-01-03T04:57:45.336Z,94.44
2023-01-03T05:00:12.738Z,94.64
2023-01-03T05:02:39.833Z,93.93
2023-01-03T05:05:07.547Z,93.06
2023-01-03T05:07:34.532Z,93.41
2023-01-03T05:10:01.436Z,93.54
2023-01-03T05:12:28.409Z,92.87
2023-01-03T05:14:55.899Z,93.41
2023-01-03T05:17:22.948Z,92.52
2023-01-03T05:20:08.392Z,91.57
2023-01-03T05:22:54.138Z,91.37
2023-01-03T05:25:39.848Z,91.09
2023-01-03T05:28:10.849Z,90.87
2023-01-03T05:30:40.648Z,93.12
2023-01-03T05:33:07.547Z,91.88
2023-01-03T05:35:34.493Z,91.55
2023-01-03T05:38:01.468Z,92.82
2023-01-03T05:40:28.400Z,93.84
2023-01-03T05:42:55.329Z,93.07
2023-01-03T05:45:26.125Z,93.75
2023-01-03T05:47:53.251Z,93.06
2023-01-03T05:50:20.159Z,92.43
2023-01-03T05:52:49.144Z,91.91
2023-01-03T05:55:16.029Z,91.35
2023-01-03T05:57:43.322Z,92.30
2023-01-03T06:00:10.899Z,91.70
2023-01-03T06:02:37.899Z,93.10
2023-01-03T06:05:06.242Z,93.44
2023-01-03T06:07:34.368Z,93.75
2023-01-03T06:10:01.288Z,94.12
2023-01-03T06:12:29.569Z,92.39
2023-01-03T06:14:56.919Z,92.17
2023-01-03T06:17:42.440Z,96.06
2023-01-03T06:20:10.036Z,96.07
2023-01-03T06:22:37.050Z,96.76
2023-01-03T06:25:04.231Z,96.60
2023-01-03T06:27:31.529Z,95.77
2023-01-03T06:29:58.490Z,96.16
2023-01-03T06:32:25.824Z,93.16
2023-01-03T06:34:53.777Z,94.87
2023-01-03T06:37:20.711Z,92.92
2023-01-03T06:39:47.599Z,98.07
2023-01-03T06:42:33.081Z,95.45
2023-01-03T06:45:18.650Z,93.33
2023-01-03T06:48:04.314Z,94.10
2023-01-03T06:50:50.181Z,94.57
2023-01-03T06:53:20.970Z,93.51
2023-01-03T06:55:54.424Z,93.11
2023-01-03T06:58:23.469Z,92.50
2023-01-03T07:00:50.494Z,92.47
2023-01-03T07:03:17.426Z,92.17
2023-01-03T07:05:44.695Z,91.71
2023-01-03T07:08:11.623Z,91.40
2023-01-03T07:10:38.533Z,93.13
2023-01-03T07:13:24.190Z,92.58
2023-01-03T07:15:51.225Z,92.30
2023-01-03T07:18:18.227Z,94.79
2023-01-03T07:20:45.851Z,93.44
2023-01-03T07:23:14.119Z,93.15
2023-01-03T07:25:42.017Z,93.32
2023-01-03T07:28:14.271Z,91.77
2023-01-03T07:30:43.771Z,93.23
2023-01-03T07:33:12.320Z,92.47
2023-01-03T07:35:39.351Z,91.06
2023-01-03T07:38:07.332Z,91.97
2023-01-03T07:40:34.472Z,92.09
2023-01-03T07:43:19.788Z,93.82
2023-01-03T07:45:47.456Z,92.13
2023-01-03T07:48:15.018Z,95.36
2023-01-03T07:50:42.610Z,96.01
2023-01-03T07:53:16.737Z,96.81
2023-01-03T07:55:50.029Z,96.68
2023-01-03T07:58:16.925Z,93.32
2023-01-03T08:00:43.840Z,92.47
2023-01-03T08:03:11.882Z,92.46
2023-01-03T08:05:39.216Z,92.29
2023-01-03T08:08:06.811Z,92.39
2023-01-03T08:10:52.199Z,91.97
2023-01-03T08:13:19.589Z,90.74
2023-01-03T08:15:55.602Z,89.74
2023-01-03T08:18:28.010Z,90.32
2023-01-03T08:20:57.388Z,89.17
2023-01-03T08:23:25.590Z,88.90
2023-01-03T08:25:59.548Z,87.84
2023-01-03T08:28:26.477Z,87.64
2023-01-03T08:30:53.567Z,87.88
2023-01-03T08:33:22.214Z,87.65
2023-01-03T08:35:53.729Z,87.85
2023-01-03T08:38:31.097Z,86.45
2023-01-03T08:41:00.788Z,88.40
2023-01-03T08:43:30.649Z,88.27
2023-01-03T08:45:57.465Z,88.23
2023-01-03T08:48:24.884Z,87.06
2023-01-03T08:50:52.010Z,86.67
2023-01-03T08:53:19.075Z,85.59
2023-01-03T08:55:45.956Z,84.99
2023-01-03T08:58:13.197Z,84.84
2023-01-03T09:00:40.248Z,84.41
2023-01-03T09:03:07.409Z,83.67
2023-01-03T09:05:34.597Z,83.78
2023-01-03T09:08:02.734Z,85.59
2023-01-03T09:10:29.773Z,83.55
2023-01-03T09:12:56.749Z,84.51
2023-01-03T09:15:23.977Z,83.55
2023-01-03T09:17:51.014Z,85.47
2023-01-03T09:20:19.192Z,83.41
2023-01-03T09:22:48.158Z,83.66
2023-01-03T09:25:15.844Z,82.96
2023-01-03T09:27:49.910Z,83.58
2023-01-03T09:30:17.555Z,82.45
2023-01-03T09:32:44.485Z,82.12
2023-01-03T09:35:11.735Z,81.96
2023-01-03T09:37:43.950Z,81.76
2023-01-03T09:40:14.196Z,81.48
2023-01-03T09:43:00.279Z,82.17
2023-01-03T09:45:30.548Z,80.78
2023-01-03T09:47:58.778Z,80.51
2023-01-03T09:50:44.282Z,82.46
2023-01-03T09:53:55.455Z,83.61
2023-01-03T09:56:41.067Z,80.68
2023-01-03T09:59:35.986Z,82.67
2023-01-03T10:02:33.461Z,82.71
2023-01-03T10:05:28.123Z,82.11
2023-01-03T10:08:08.669Z,82.92
2023-01-03T10:11:06.797Z,85.88
2023-01-03T10:13:36.686Z,85.62
2023-01-03T10:16:22.436Z,85.07
2023-01-03T10:19:04.394Z,82.34
2023-01-03T10:21:53.786Z,81.58
2023-01-03T10:24:29.168Z,81.03
2023-01-03T10:27:09.683Z,83.38
2023-01-03T10:29:36.680Z,80.75
2023-01-03T10:32:44.286Z,83.74
2023-01-03T10:35:20.186Z,81.76
2023-01-03T10:37:48.032Z,81.44
2023-01-03T10:40:15.263Z,80.67
2023-01-03T10:42:43.279Z,80.21
2023-01-03T10:45:15.284Z,79.37
2023-01-03T10:47:43.047Z,83.17
2023-01-03T10:50:21.768Z,80.89
2023-01-03T10:52:56.813Z,81.54
2023-01-03T10:55:26.671Z,80.18
2023-01-03T10:57:53.413Z,81.08
2023-01-03T11:00:37.937Z,80.28
2023-01-03T11:03:25.565Z,81.38
2023-01-03T11:06:01.526Z,80.77
2023-01-03T11:08:37.544Z,81.27
2023-01-03T11:11:04.740Z,82.13
2023-01-03T11:13:41.179Z,84.26
2023-01-03T11:16:19.422Z,82.74
2023-01-03T11:19:01.479Z,83.14
2023-01-03T11:21:37.397Z,82.36
2023-01-03T11:24:31.793Z,81.19
2023-01-03T11:27:01.522Z,83.42
2023-01-03T11:29:46.875Z,81.38
2023-01-03T11:32:39.800Z,81.24
2023-01-03T11:35:22.866Z,81.18
2023-01-03T11:38:11.464Z,78.66
2023-01-03T11:41:00.144Z,78.30
2023-01-03T11:43:45.320Z,79.14
2023-01-03T11:46:47.321Z,78.78
2023-01-03T11:49:45.102Z,77.97
2023-01-03T11:52:18.447Z,77.26
2023-01-03T11:55:23.001Z,80.02
2023-01-03T11:58:02.638Z,81.03
2023-01-03T12:00:32.186Z,80.46
2023-01-03T12:03:04.836Z,82.09
2023-01-03T12:05:43.024Z,82.54
2023-01-03T12:08:16.647Z,82.33
2023-01-03T12:10:46.785Z,81.48
2023-01-03T12:13:37.537Z,83.61
2023-01-03T12:16:23.751Z,82.62
2023-01-03T12:19:02.661Z,81.22
2023-01-03T12:21:35.999Z,82.77
2023-01-03T12:24:17.653Z,83.80
2023-01-03T12:26:51.467Z,81.47
2023-01-03T12:29:29.398Z,81.54
2023-01-03T12:32:12.705Z,82.66
2023-01-03T12:35:04.623Z,81.46
2023-01-03T12:37:37.225Z,81.80
2023-01-03T12:40:24.103Z,80.14
2023-01-03T12:43:26.292Z,79.17
2023-01-03T12:46:12.651Z,79.80
2023-01-03T12:48:55.165Z,78.16
2023-01-03T12:51:24.981Z,77.92
2023-01-03T12:54:10.332Z,77.77
2023-01-03T12:57:03.133Z,78.04
2023-01-03T13:00:17.771Z,78.71
2023-01-03T13:02:53.872Z,77.00
2023-01-03T13:05:29.082Z,77.45
2023-01-03T13:08:29.182Z,77.90
2023-01-03T13:11:01.470Z,75.62
2023-01-03T13:13:29.365Z,76.49
2023-01-03T13:15:56.591Z,75.64
2023-01-03T13:18:23.546Z,74.75
2023-01-03T13:20:52.417Z,75.82
2023-01-03T13:23:47.166Z,75.58
2023-01-03T13:26:28.433Z,75.61
2023-01-03T13:29:33.244Z,75.54
2023-01-03T13:32:14.882Z,76.15
2023-01-03T13:34:43.888Z,76.47
2023-01-03T13:37:15.351Z,77.32
2023-01-03T13:39:51.459Z,76.77
2023-01-03T13:42:37.715Z,77.04
2023-01-03T13:45:19.414Z,76.93
2023-01-03T13:47:51.276Z,76.44
2023-01-03T13:50:32.915Z,76.10
2023-01-03T13:53:12.908Z,76.38
2023-01-03T13:55:54.358Z,74.91
2023-01-03T13:58:24.501Z,75.88
2023-01-03T14:01:05.852Z,75.67
2023-01-03T14:03:57.225Z,75.56
2023-01-03T14:06:50.841Z,75.36
2023-01-03T14:09:54.668Z,75.20
2023-01-03T14:12:52.640Z,74.49
2023-01-03T14:15:26.380Z,74.87
2023-01-03T14:18:08.323Z,74.37
2023-01-03T14:20:49.350Z,74.03
2023-01-03T14:23:57.676Z,75.05
2023-01-03T14:26:13.019Z,74.44
2023-01-03T14:28:40.645Z,74.44
2023-01-03T14:31:17.918Z,74.12
2023-01-03T14:33:53.632Z,74.93
2023-01-03T14:36:20.597Z,75.12
2023-01-03T14:38:58.038Z,74.59
2023-01-03T14:41:39.747Z,74.80
2023-01-03T14:44:12.632Z,74.55
2023-01-03T14:46:42.911Z,75.38
2023-01-03T14:49:25.997Z,75.26
2023-01-03T14:52:07.607Z,74.53
2023-01-03T14:54:36.245Z,74.87
2023-01-03T14:57:05.164Z,75.36
2023-01-03T14:59:34.026Z,75.14
2023-01-03T15:02:01.502Z,75.09
2023-01-03T15:04:28.527Z,75.91
2023-01-03T15:07:13.068Z,74.82
2023-01-03T15:09:40.745Z,75.69
2023-01-03T15:12:08.377Z,75.68
2023-01-03T15:14:39.677Z,76.13
2023-01-03T15:17:16.012Z,76.78
2023-01-03T15:19:53.820Z,79.03
2023-01-03T15:22:25.297Z,78.43
2023-01-03T15:25:04.721Z,79.05
2023-01-03T15:27:37.536Z,78.57
2023-01-03T15:30:17.132Z,78.04
2023-01-03T15:32:47.532Z,80.04
2023-01-03T15:35:23.403Z,80.33
2023-01-03T15:37:54.982Z,79.99
2023-01-03T15:40:22.729Z,81.01
2023-01-03T15:43:08.862Z,80.11
2023-01-03T15:45:41.115Z,80.51
2023-01-03T15:48:14.656Z,80.74
2023-01-03T15:50:48.111Z,81.47
2023-01-03T15:53:39.219Z,80.89
2023-01-03T15:56:20.139Z,80.32
2023-01-03T15:58:49.096Z,81.93
2023-01-03T16:01:17.441Z,80.38
2023-01-03T16:03:44.630Z,80.22
2023-01-03T16:06:11.679Z,80.06
2023-01-03T16:08:41.226Z,80.06
2023-01-03T16:11:31.404Z,80.12
2023-01-03T16:14:03.707Z,79.70
2023-01-03T16:16:35.397Z,79.57
2023-01-03T16:19:04.267Z,78.87
2023-01-03T16:21:31.790Z,78.61
2023-01-03T16:23:59.496Z,79.54
2023-01-03T16:26:26.463Z,79.71
2023-01-03T16:28:55.467Z,80.77
2023-01-03T16:31:41.671Z,82.24
2023-01-03T16:34:19.946Z,81.98
2023-01-03T16:36:48.258Z,83.01
2023-01-03T16:39:18.521Z,83.14
2023-01-03T16:42:06.535Z,85.64
2023-01-03T16:44:35.877Z,82.26
2023-01-03T16:47:05.290Z,83.98
2023-01-03T16:49:35.762Z,83.33
2023-01-03T16:52:06.178Z,83.04
2023-01-03T16:54:34.508Z,83.39
2023-01-03T16:57:01.424Z,84.26
2023-01-03T16:59:28.436Z,83.60
2023-01-03T17:01:55.539Z,84.79
2023-01-03T17:04:22.527Z,85.66
2023-01-03T17:06:49.460Z,85.41
2023-01-03T17:09:21.390Z,85.21
2023-01-03T17:11:48.889Z,84.89
2023-01-03T17:14:23.484Z,83.53
2023-01-03T17:16:50.980Z,84.92
2023-01-03T17:22:20.630Z,83.90
2023-01-03T17:24:48.483Z,86.31
2023-01-03T17:27:31.816Z,85.91
2023-01-03T17:30:04.728Z,85.44
2023-01-03T17:32:32.104Z,85.91
2023-01-03T17:34:59.048Z,86.66
2023-01-03T17:37:26.775Z,87.72
2023-01-03T17:39:57.249Z,86.23
2023-01-03T17:42:25.894Z,86.40
2023-01-03T17:45:12.160Z,86.14
2023-01-03T17:48:01.876Z,85.83
2023-01-03T17:50:32.391Z,86.72
2023-01-03T17:53:02.291Z,85.62
2023-01-03T17:55:29.922Z,84.81
2023-01-03T17:57:57.074Z,84.25
2023-01-03T18:00:25.453Z,84.10
2023-01-03T18:02:52.904Z,83.69
2023-01-03T18:05:27.753Z,83.38
2023-01-03T18:07:56.561Z,85.08
2023-01-03T18:10:30.167Z,84.35
2023-01-03T18:12:57.164Z,84.16
2023-01-03T18:15:23.893Z,83.90
2023-01-03T18:17:51.176Z,83.44
2023-01-03T18:20:18.527Z,87.21
2023-01-03T18:22:46.531Z,87.25
2023-01-03T18:25:23.913Z,87.50
2023-01-03T18:27:53.011Z,84.52
2023-01-03T18:30:19.940Z,87.12
2023-01-03T18:32:46.734Z,87.08
2023-01-03T18:35:14.584Z,89.48
2023-01-03T18:37:41.956Z,89.74
2023-01-03T18:40:09.105Z,87.62
2023-01-03T18:42:54.929Z,87.92
2023-01-03T18:45:21.823Z,87.85
2023-01-03T18:47:49.313Z,87.95
2023-01-03T18:50:20.043Z,87.54
2023-01-03T18:52:47.814Z,86.52
2023-01-03T18:55:19.561Z,89.70
2023-01-03T18:57:46.649Z,88.52
2023-01-03T19:00:17.732Z,90.61
2023-01-03T19:02:45.334Z,87.84
2023-01-03T19:05:12.254Z,86.74
2023-01-03T19:07:39.260Z,86.31
2023-01-03T19:10:07.313Z,86.05
2023-01-03T19:12:38.773Z,85.96
2023-01-03T19:15:16.282Z,86.13
2023-01-03T19:17:43.018Z,85.97
2023-01-03T19:20:10.051Z,86.59
2023-01-03T19:22:38.252Z,86.60
2023-01-03T19:25:07.688Z,86.37
2023-01-03T19:27:38.589Z,86.08
2023-01-03T19:30:06.684Z,85.86
2023-01-03T19:32:34.179Z,85.12
2023-01-03T19:35:01.154Z,85.48
2023-01-03T19:37:27.902Z,85.45
2023-01-03T19:39:54.642Z,90.15
2023-01-03T19:42:40.106Z,88.97
2023-01-03T19:45:26.343Z,89.10
2023-01-03T19:47:53.542Z,87.47
2023-01-03T19:50:24.114Z,88.65
2023-01-03T19:52:51.534Z,87.09
2023-01-03T19:55:18.332Z,85.65
2023-01-03T19:57:47.192Z,88.33
2023-01-03T20:00:32.339Z,87.64
2023-01-03T20:03:02.051Z,86.55
2023-01-03T20:05:36.475Z,85.73
2023-01-03T20:08:11.278Z,85.56
2023-01-03T20:10:40.275Z,85.30
2023-01-03T20:13:07.045Z,85.88
2023-01-03T20:15:40.696Z,86.29
2023-01-03T20:18:22.645Z,85.63
2023-01-03T20:20:50.094Z,84.90
2023-01-03T20:23:17.616Z,84.68
2023-01-03T20:25:45.082Z,85.11
2023-01-03T20:28:17.003Z,84.47
2023-01-03T20:30:43.763Z,84.77
2023-01-03T20:33:11.451Z,84.11
2023-01-03T20:38:27.195Z,84.10
2023-01-03T20:40:56.501Z,83.93
2023-01-03T20:43:23.856Z,84.14
2023-01-03T20:45:55.356Z,83.93
2023-01-03T20:48:25.968Z,83.54
2023-01-03T20:50:53.450Z,83.58
2023-01-03T20:53:21.626Z,83.56
2023-01-03T20:55:48.909Z,83.34
2023-01-03T20:58:17.224Z,83.56
2023-01-03T21:00:44.492Z,83.80
2023-01-03T21:03:11.675Z,83.52
2023-01-03T21:05:38.937Z,83.36
2023-01-03T21:08:25.188Z,83.44
2023-01-03T21:10:54.655Z,83.22
2023-01-03T21:13:21.842Z,83.26
2023-01-03T21:15:49.703Z,83.34
2023-01-03T21:18:16.846Z,82.98
2023-01-03T21:20:44.163Z,83.24
2023-01-03T21:23:29.263Z,83.01
2023-01-03T21:25:56.125Z,83.11
2023-01-03T21:28:23.310Z,84.78
2023-01-03T21:30:50.004Z,84.52
2023-01-03T21:33:17.605Z,84.38
2023-01-03T21:35:44.735Z,84.03
2023-01-03T21:38:11.716Z,84.01
2023-01-03T21:40:39.675Z,83.97
2023-01-03T21:43:06.982Z,83.64
2023-01-03T21:45:35.609Z,84.23
2023-01-03T21:48:03.715Z,84.72
2023-01-03T21:50:31.047Z,84.37
2023-01-03T21:52:58.130Z,84.85
2023-01-03T21:55:24.975Z,84.16
2023-01-03T21:57:52.045Z,84.26
2023-01-03T22:00:19.126Z,84.01
2023-01-03T22:03:06.622Z,83.92
2023-01-03T22:05:33.524Z,83.96
2023-01-03T22:08:01.814Z,84.30
2023-01-03T22:10:29.104Z,84.25
2023-01-03T22:12:57.533Z,84.12
2023-01-03T22:15:25.004Z,83.97
2023-01-03T22:17:52.674Z,82.48
2023-01-03T22:20:20.539Z,82.29
2023-01-03T22:22:47.355Z,82.69
2023-01-03T22:25:16.022Z,84.21
2023-01-03T22:27:43.193Z,84.33
2023-01-03T22:30:12.857Z,84.53
2023-01-03T22:32:39.814Z,84.07
2023-01-03T22:35:06.731Z,84.73
2023-01-03T22:37:33.496Z,85.21
2023-01-03T22:40:00.198Z,84.71
2023-01-03T22:42:27.205Z,84.51
2023-01-03T22:44:54.006Z,84.90
2023-01-03T22:47:20.812Z,84.72
2023-01-03T22:49:47.992Z,84.44
2023-01-03T22:52:14.695Z,84.71
2023-01-03T22:54:41.820Z,84.35
2023-01-03T22:57:08.635Z,84.17
2023-01-03T22:59:35.377Z,84.69
2023-01-03T23:02:02.278Z,84.77
2023-01-03T23:04:29.259Z,84.80
2023-01-03T23:06:56.126Z,84.54
2023-01-03T23:09:24.275Z,84.27
2023-01-03T23:12:09.953Z,83.77
2023-01-03T23:14:36.768Z,83.71
2023-01-03T23:17:23.446Z,83.21
2023-01-03T23:19:50.462Z,83.09
2023-01-03T23:22:17.193Z,83.25
2023-01-03T23:24:43.971Z,82.77
2023-01-03T23:27:10.737Z,82.97
2023-01-03T23:29:37.482Z,83.00
2023-01-03T23:32:04.290Z,82.78
2023-01-03T23:34:31.003Z,82.46
2023-01-03T23:36:57.719Z,83.49
2023-01-03T23:39:24.504Z,83.24
2023-01-03T23:41:51.273Z,83.52
2023-01-03T23:44:18.025Z,84.23
2023-01-03T23:46:44.780Z,83.51
2023-01-03T23:49:13.547Z,83.23
2023-01-03T23:51:40.501Z,82.48
2023-01-03T23:54:07.392Z,82.50
2023-01-03T23:56:34.221Z,82.92
2023-01-03T23:59:01.052Z,82.96
